sensor_id;sensor_type;location;lat;lon;timestamp;pressure;altitude;pressure_sealevel;temperature
33877;BMP180;20166;51.738;7.158;2024-02-23T00:02:35;98181.00;;;7.00
33877;BMP180;20166;51.738;7.158;2024-02-23T00:05:22;98196.00;;;7.20
33877;BMP180;20166;51.738;7.158;2024-02-23T00:08:08;98212.00;;;7.20
33877;BMP180;20166;51.738;7.158;2024-02-23T00:10:56;98215.00;;;7.20
33877;BMP180;20166;51.738;7.158;2024-02-23T00:13:42;98227.00;;;7.10
33877;BMP180;20166;51.738;7.158;2024-02-23T00:16:28;98240.00;;;6.90
33877;BMP180;20166;51.738;7.158;2024-02-23T00:19:15;98250.00;;;6.80
33877;BMP180;20166;51.738;7.158;2024-02-23T00:22:03;98254.00;;;6.80
33877;BMP180;20166;51.738;7.158;2024-02-23T00:24:53;98258.00;;;6.80
33877;BMP180;20166;51.738;7.158;2024-02-23T00:27:40;98269.00;;;6.90
33877;BMP180;20166;51.738;7.158;2024-02-23T00:30:29;98285.00;;;6.80
33877;BMP180;20166;51.738;7.158;2024-02-23T00:33:15;98288.00;;;6.80
33877;BMP180;20166;51.738;7.158;2024-02-23T00:36:01;98292.00;;;6.70
33877;BMP180;20166;51.738;7.158;2024-02-23T00:38:48;98284.00;;;6.70
33877;BMP180;20166;51.738;7.158;2024-02-23T00:41:34;98297.00;;;6.80
33877;BMP180;20166;51.738;7.158;2024-02-23T00:44:22;98292.00;;;6.60
33877;BMP180;20166;51.738;7.158;2024-02-23T00:47:09;98301.00;;;6.70
33877;BMP180;20166;51.738;7.158;2024-02-23T00:49:55;98302.00;;;6.80
33877;BMP180;20166;51.738;7.158;2024-02-23T00:52:42;98303.00;;;6.90
33877;BMP180;20166;51.738;7.158;2024-02-23T00:55:28;98320.00;;;6.80
33877;BMP180;20166;51.738;7.158;2024-02-23T00:58:14;98315.00;;;6.80
33877;BMP180;20166;51.738;7.158;2024-02-23T01:01:03;98333.00;;;6.70
33877;BMP180;20166;51.738;7.158;2024-02-23T01:03:50;98329.00;;;6.70
33877;BMP180;20166;51.738;7.158;2024-02-23T01:06:36;98344.00;;;6.70
33877;BMP180;20166;51.738;7.158;2024-02-23T01:09:23;98349.00;;;6.60
33877;BMP180;20166;51.738;7.158;2024-02-23T01:12:09;98355.00;;;6.70
33877;BMP180;20166;51.738;7.158;2024-02-23T01:14:56;98353.00;;;6.60
33877;BMP180;20166;51.738;7.158;2024-02-23T01:17:48;98367.00;;;6.50
33877;BMP180;20166;51.738;7.158;2024-02-23T01:20:34;98372.00;;;6.60
33877;BMP180;20166;51.738;7.158;2024-02-23T01:23:21;98374.00;;;6.70
33877;BMP180;20166;51.738;7.158;2024-02-23T01:26:07;98355.00;;;6.70
33877;BMP180;20166;51.738;7.158;2024-02-23T01:28:54;98378.00;;;6.70
33877;BMP180;20166;51.738;7.158;2024-02-23T01:31:40;98387.00;;;6.70
33877;BMP180;20166;51.738;7.158;2024-02-23T01:34:28;98382.00;;;6.80
33877;BMP180;20166;51.738;7.158;2024-02-23T01:37:14;98384.00;;;6.70
33877;BMP180;20166;51.738;7.158;2024-02-23T01:40:01;98395.00;;;6.70
33877;BMP180;20166;51.738;7.158;2024-02-23T01:42:47;98394.00;;;6.70
33877;BMP180;20166;51.738;7.158;2024-02-23T01:45:33;98394.00;;;6.70
33877;BMP180;20166;51.738;7.158;2024-02-23T01:48:20;98397.00;;;6.70
33877;BMP180;20166;51.738;7.158;2024-02-23T01:51:08;98407.00;;;6.70
33877;BMP180;20166;51.738;7.158;2024-02-23T01:53:55;98406.00;;;6.60
33877;BMP180;20166;51.738;7.158;2024-02-23T01:56:42;98405.00;;;6.80
33877;BMP180;20166;51.738;7.158;2024-02-23T01:59:29;98398.00;;;6.70
33877;BMP180;20166;51.738;7.158;2024-02-23T02:02:16;98404.00;;;6.60
33877;BMP180;20166;51.738;7.158;2024-02-23T02:05:03;98396.00;;;6.70
33877;BMP180;20166;51.738;7.158;2024-02-23T02:07:55;98398.00;;;6.70
33877;BMP180;20166;51.738;7.158;2024-02-23T02:10:44;98407.00;;;6.70
33877;BMP180;20166;51.738;7.158;2024-02-23T02:13:31;98413.00;;;6.70
33877;BMP180;20166;51.738;7.158;2024-02-23T02:16:18;98400.00;;;6.80
33877;BMP180;20166;51.738;7.158;2024-02-23T02:19:04;98405.00;;;6.80
33877;BMP180;20166;51.738;7.158;2024-02-23T02:21:51;98403.00;;;6.90
33877;BMP180;20166;51.738;7.158;2024-02-23T02:24:38;98413.00;;;6.90
33877;BMP180;20166;51.738;7.158;2024-02-23T02:27:27;98402.00;;;6.90
33877;BMP180;20166;51.738;7.158;2024-02-23T02:30:14;98401.00;;;6.90
33877;BMP180;20166;51.738;7.158;2024-02-23T02:33:00;98415.00;;;6.90
33877;BMP180;20166;51.738;7.158;2024-02-23T02:35:47;98411.00;;;7.00
33877;BMP180;20166;51.738;7.158;2024-02-23T02:38:34;98424.00;;;6.90
33877;BMP180;20166;51.738;7.158;2024-02-23T02:41:24;98434.00;;;6.80
33877;BMP180;20166;51.738;7.158;2024-02-23T02:44:13;98422.00;;;6.80
33877;BMP180;20166;51.738;7.158;2024-02-23T02:47:00;98438.00;;;6.70
33877;BMP180;20166;51.738;7.158;2024-02-23T02:49:46;98434.00;;;6.70
33877;BMP180;20166;51.738;7.158;2024-02-23T02:52:33;98439.00;;;6.70
33877;BMP180;20166;51.738;7.158;2024-02-23T02:55:20;98434.00;;;6.70
33877;BMP180;20166;51.738;7.158;2024-02-23T02:58:07;98436.00;;;6.70
33877;BMP180;20166;51.738;7.158;2024-02-23T03:00:54;98445.00;;;6.70
33877;BMP180;20166;51.738;7.158;2024-02-23T03:03:40;98450.00;;;6.70
33877;BMP180;20166;51.738;7.158;2024-02-23T03:06:27;98459.00;;;6.70
33877;BMP180;20166;51.738;7.158;2024-02-23T03:09:13;98448.00;;;6.80
33877;BMP180;20166;51.738;7.158;2024-02-23T03:12:00;98457.00;;;6.90
33877;BMP180;20166;51.738;7.158;2024-02-23T03:14:47;98462.00;;;6.90
33877;BMP180;20166;51.738;7.158;2024-02-23T03:17:34;98465.00;;;6.80
33877;BMP180;20166;51.738;7.158;2024-02-23T03:20:21;98471.00;;;6.90
33877;BMP180;20166;51.738;7.158;2024-02-23T03:23:07;98476.00;;;6.90
33877;BMP180;20166;51.738;7.158;2024-02-23T03:25:54;98476.00;;;6.90
33877;BMP180;20166;51.738;7.158;2024-02-23T03:28:40;98476.00;;;6.80
33877;BMP180;20166;51.738;7.158;2024-02-23T03:31:28;98466.00;;;6.80
33877;BMP180;20166;51.738;7.158;2024-02-23T03:34:15;98481.00;;;6.80
33877;BMP180;20166;51.738;7.158;2024-02-23T03:37:01;98485.00;;;6.80
33877;BMP180;20166;51.738;7.158;2024-02-23T03:39:48;98493.00;;;6.70
33877;BMP180;20166;51.738;7.158;2024-02-23T03:42:34;98494.00;;;6.80
33877;BMP180;20166;51.738;7.158;2024-02-23T03:45:21;98493.00;;;6.80
33877;BMP180;20166;51.738;7.158;2024-02-23T03:48:08;98491.00;;;6.80
33877;BMP180;20166;51.738;7.158;2024-02-23T03:50:55;98484.00;;;6.80
33877;BMP180;20166;51.738;7.158;2024-02-23T03:53:41;98477.00;;;6.80
33877;BMP180;20166;51.738;7.158;2024-02-23T03:56:27;98484.00;;;6.70
33877;BMP180;20166;51.738;7.158;2024-02-23T03:59:14;98483.00;;;6.70
33877;BMP180;20166;51.738;7.158;2024-02-23T04:02:00;98481.00;;;6.70
33877;BMP180;20166;51.738;7.158;2024-02-23T04:04:48;98493.00;;;6.70
33877;BMP180;20166;51.738;7.158;2024-02-23T04:07:35;98509.00;;;6.80
33877;BMP180;20166;51.738;7.158;2024-02-23T04:10:22;98502.00;;;6.70
33877;BMP180;20166;51.738;7.158;2024-02-23T04:13:08;98495.00;;;6.80
33877;BMP180;20166;51.738;7.158;2024-02-23T04:15:56;98514.00;;;6.70
33877;BMP180;20166;51.738;7.158;2024-02-23T04:18:43;98513.00;;;6.70
33877;BMP180;20166;51.738;7.158;2024-02-23T04:21:31;98516.00;;;6.70
33877;BMP180;20166;51.738;7.158;2024-02-23T04:24:17;98521.00;;;6.70
33877;BMP180;20166;51.738;7.158;2024-02-23T04:27:04;98513.00;;;6.80
33877;BMP180;20166;51.738;7.158;2024-02-23T04:29:50;98536.00;;;6.80
33877;BMP180;20166;51.738;7.158;2024-02-23T04:32:36;98525.00;;;6.80
33877;BMP180;20166;51.738;7.158;2024-02-23T04:35:23;98545.00;;;6.80
33877;BMP180;20166;51.738;7.158;2024-02-23T04:38:11;98538.00;;;6.80
33877;BMP180;20166;51.738;7.158;2024-02-23T04:40:58;98538.00;;;6.80
33877;BMP180;20166;51.738;7.158;2024-02-23T04:43:44;98543.00;;;6.80
33877;BMP180;20166;51.738;7.158;2024-02-23T04:46:31;98554.00;;;6.70
33877;BMP180;20166;51.738;7.158;2024-02-23T04:49:19;98564.00;;;6.80
33877;BMP180;20166;51.738;7.158;2024-02-23T04:52:07;98556.00;;;6.80
33877;BMP180;20166;51.738;7.158;2024-02-23T04:54:55;98557.00;;;6.80
33877;BMP180;20166;51.738;7.158;2024-02-23T04:57:41;98564.00;;;6.80
33877;BMP180;20166;51.738;7.158;2024-02-23T05:00:28;98560.00;;;6.70
33877;BMP180;20166;51.738;7.158;2024-02-23T05:03:18;98556.00;;;6.80
33877;BMP180;20166;51.738;7.158;2024-02-23T05:06:05;98570.00;;;6.90
33877;BMP180;20166;51.738;7.158;2024-02-23T05:08:52;98573.00;;;6.90
33877;BMP180;20166;51.738;7.158;2024-02-23T05:11:39;98571.00;;;6.90
33877;BMP180;20166;51.738;7.158;2024-02-23T05:14:26;98573.00;;;6.90
33877;BMP180;20166;51.738;7.158;2024-02-23T05:17:13;98568.00;;;6.90
33877;BMP180;20166;51.738;7.158;2024-02-23T05:19:59;98567.00;;;6.90
33877;BMP180;20166;51.738;7.158;2024-02-23T05:22:51;98584.00;;;6.90
33877;BMP180;20166;51.738;7.158;2024-02-23T05:25:38;98582.00;;;6.90
33877;BMP180;20166;51.738;7.158;2024-02-23T05:28:26;98588.00;;;7.00
33877;BMP180;20166;51.738;7.158;2024-02-23T05:31:13;98587.00;;;6.90
33877;BMP180;20166;51.738;7.158;2024-02-23T05:33:59;98594.00;;;7.00
33877;BMP180;20166;51.738;7.158;2024-02-23T05:36:46;98584.00;;;6.90
33877;BMP180;20166;51.738;7.158;2024-02-23T05:39:32;98582.00;;;6.90
33877;BMP180;20166;51.738;7.158;2024-02-23T05:42:19;98587.00;;;6.90
33877;BMP180;20166;51.738;7.158;2024-02-23T05:45:07;98576.00;;;6.80
33877;BMP180;20166;51.738;7.158;2024-02-23T05:47:54;98588.00;;;6.90
33877;BMP180;20166;51.738;7.158;2024-02-23T05:50:41;98586.00;;;6.90
33877;BMP180;20166;51.738;7.158;2024-02-23T05:53:28;98568.00;;;6.90
33877;BMP180;20166;51.738;7.158;2024-02-23T05:56:17;98575.00;;;6.80
33877;BMP180;20166;51.738;7.158;2024-02-23T05:59:03;98571.00;;;6.90
33877;BMP180;20166;51.738;7.158;2024-02-23T06:01:52;98574.00;;;6.80
33877;BMP180;20166;51.738;7.158;2024-02-23T06:04:42;98579.00;;;6.80
33877;BMP180;20166;51.738;7.158;2024-02-23T06:07:28;98572.00;;;6.80
33877;BMP180;20166;51.738;7.158;2024-02-23T06:10:15;98569.00;;;6.90
33877;BMP180;20166;51.738;7.158;2024-02-23T06:13:01;98574.00;;;6.90
33877;BMP180;20166;51.738;7.158;2024-02-23T06:15:49;98565.00;;;6.90
33877;BMP180;20166;51.738;7.158;2024-02-23T06:18:37;98568.00;;;6.80
33877;BMP180;20166;51.738;7.158;2024-02-23T06:21:26;98571.00;;;6.80
33877;BMP180;20166;51.738;7.158;2024-02-23T06:24:12;98567.00;;;6.80
33877;BMP180;20166;51.738;7.158;2024-02-23T06:26:59;98572.00;;;6.80
33877;BMP180;20166;51.738;7.158;2024-02-23T06:29:45;98576.00;;;6.70
33877;BMP180;20166;51.738;7.158;2024-02-23T06:32:32;98573.00;;;6.60
33877;BMP180;20166;51.738;7.158;2024-02-23T06:35:20;98576.00;;;6.60
33877;BMP180;20166;51.738;7.158;2024-02-23T06:38:07;98563.00;;;6.60
33877;BMP180;20166;51.738;7.158;2024-02-23T06:40:53;98564.00;;;6.50
33877;BMP180;20166;51.738;7.158;2024-02-23T06:43:40;98558.00;;;6.50
33877;BMP180;20166;51.738;7.158;2024-02-23T06:46:26;98568.00;;;6.50
33877;BMP180;20166;51.738;7.158;2024-02-23T06:49:13;98571.00;;;6.50
33877;BMP180;20166;51.738;7.158;2024-02-23T06:52:01;98573.00;;;6.60
33877;BMP180;20166;51.738;7.158;2024-02-23T06:54:48;98574.00;;;6.60
33877;BMP180;20166;51.738;7.158;2024-02-23T06:57:34;98564.00;;;6.50
33877;BMP180;20166;51.738;7.158;2024-02-23T07:00:21;98579.00;;;6.50
33877;BMP180;20166;51.738;7.158;2024-02-23T07:03:08;98578.00;;;6.50
33877;BMP180;20166;51.738;7.158;2024-02-23T07:05:54;98564.00;;;6.60
33877;BMP180;20166;51.738;7.158;2024-02-23T07:08:42;98573.00;;;6.60
33877;BMP180;20166;51.738;7.158;2024-02-23T07:11:28;98569.00;;;6.70
33877;BMP180;20166;51.738;7.158;2024-02-23T07:14:15;98573.00;;;6.70
33877;BMP180;20166;51.738;7.158;2024-02-23T07:17:02;98582.00;;;6.70
33877;BMP180;20166;51.738;7.158;2024-02-23T07:19:48;98574.00;;;6.70
33877;BMP180;20166;51.738;7.158;2024-02-23T07:22:36;98583.00;;;6.80
33877;BMP180;20166;51.738;7.158;2024-02-23T07:25:24;98570.00;;;6.90
33877;BMP180;20166;51.738;7.158;2024-02-23T07:28:11;98573.00;;;6.90
33877;BMP180;20166;51.738;7.158;2024-02-23T07:30:57;98575.00;;;7.00
33877;BMP180;20166;51.738;7.158;2024-02-23T07:33:43;98585.00;;;6.90
33877;BMP180;20166;51.738;7.158;2024-02-23T07:36:30;98575.00;;;7.00
33877;BMP180;20166;51.738;7.158;2024-02-23T07:39:16;98569.00;;;7.10
33877;BMP180;20166;51.738;7.158;2024-02-23T07:42:04;98572.00;;;7.10
33877;BMP180;20166;51.738;7.158;2024-02-23T07:44:51;98579.00;;;7.20
33877;BMP180;20166;51.738;7.158;2024-02-23T07:47:37;98568.00;;;7.20
33877;BMP180;20166;51.738;7.158;2024-02-23T07:50:24;98574.00;;;7.20
33877;BMP180;20166;51.738;7.158;2024-02-23T07:53:10;98582.00;;;7.30
33877;BMP180;20166;51.738;7.158;2024-02-23T07:55:57;98586.00;;;7.40
33877;BMP180;20166;51.738;7.158;2024-02-23T07:58:46;98592.00;;;7.50
33877;BMP180;20166;51.738;7.158;2024-02-23T08:01:32;98581.00;;;7.60
33877;BMP180;20166;51.738;7.158;2024-02-23T08:04:19;98588.00;;;7.70
33877;BMP180;20166;51.738;7.158;2024-02-23T08:07:05;98600.00;;;7.70
33877;BMP180;20166;51.738;7.158;2024-02-23T08:09:52;98588.00;;;7.80
33877;BMP180;20166;51.738;7.158;2024-02-23T08:12:38;98599.00;;;7.80
33877;BMP180;20166;51.738;7.158;2024-02-23T08:15:29;98589.00;;;7.70
33877;BMP180;20166;51.738;7.158;2024-02-23T08:18:15;98599.00;;;7.70
33877;BMP180;20166;51.738;7.158;2024-02-23T08:21:02;98585.00;;;7.70
33877;BMP180;20166;51.738;7.158;2024-02-23T08:23:50;98595.00;;;7.70
33877;BMP180;20166;51.738;7.158;2024-02-23T08:26:37;98597.00;;;7.80
33877;BMP180;20166;51.738;7.158;2024-02-23T08:29:25;98596.00;;;7.80
33877;BMP180;20166;51.738;7.158;2024-02-23T08:32:13;98600.00;;;7.80
33877;BMP180;20166;51.738;7.158;2024-02-23T08:34:59;98597.00;;;7.80
33877;BMP180;20166;51.738;7.158;2024-02-23T08:37:46;98588.00;;;7.80
33877;BMP180;20166;51.738;7.158;2024-02-23T08:40:34;98599.00;;;7.80
33877;BMP180;20166;51.738;7.158;2024-02-23T08:43:20;98600.00;;;7.90
33877;BMP180;20166;51.738;7.158;2024-02-23T08:46:07;98605.00;;;7.90
33877;BMP180;20166;51.738;7.158;2024-02-23T08:48:56;98601.00;;;7.90
33877;BMP180;20166;51.738;7.158;2024-02-23T08:51:42;98594.00;;;7.90
33877;BMP180;20166;51.738;7.158;2024-02-23T08:54:28;98577.00;;;7.90
33877;BMP180;20166;51.738;7.158;2024-02-23T08:57:15;98583.00;;;7.90
33877;BMP180;20166;51.738;7.158;2024-02-23T09:00:05;98582.00;;;7.90
33877;BMP180;20166;51.738;7.158;2024-02-23T09:02:52;98593.00;;;8.00
33877;BMP180;20166;51.738;7.158;2024-02-23T09:05:40;98601.00;;;8.10
33877;BMP180;20166;51.738;7.158;2024-02-23T09:08:27;98593.00;;;8.10
33877;BMP180;20166;51.738;7.158;2024-02-23T09:11:13;98606.00;;;8.00
33877;BMP180;20166;51.738;7.158;2024-02-23T09:14:00;98602.00;;;8.10
33877;BMP180;20166;51.738;7.158;2024-02-23T09:16:46;98601.00;;;8.10
33877;BMP180;20166;51.738;7.158;2024-02-23T09:19:35;98604.00;;;8.00
33877;BMP180;20166;51.738;7.158;2024-02-23T09:22:23;98607.00;;;7.90
33877;BMP180;20166;51.738;7.158;2024-02-23T09:25:10;98605.00;;;7.90
33877;BMP180;20166;51.738;7.158;2024-02-23T09:27:57;98622.00;;;7.90
33877;BMP180;20166;51.738;7.158;2024-02-23T09:30:43;98623.00;;;8.00
33877;BMP180;20166;51.738;7.158;2024-02-23T09:33:30;98620.00;;;7.90
33877;BMP180;20166;51.738;7.158;2024-02-23T09:36:17;98638.00;;;7.90
33877;BMP180;20166;51.738;7.158;2024-02-23T09:39:04;98623.00;;;7.90
33877;BMP180;20166;51.738;7.158;2024-02-23T09:41:51;98632.00;;;7.90
33877;BMP180;20166;51.738;7.158;2024-02-23T09:44:37;98619.00;;;7.90
33877;BMP180;20166;51.738;7.158;2024-02-23T09:47:24;98629.00;;;8.00
33877;BMP180;20166;51.738;7.158;2024-02-23T09:50:12;98624.00;;;8.00
33877;BMP180;20166;51.738;7.158;2024-02-23T09:53:01;98637.00;;;8.00
33877;BMP180;20166;51.738;7.158;2024-02-23T09:56:01;98632.00;;;8.00
33877;BMP180;20166;51.738;7.158;2024-02-23T09:58:48;98641.00;;;8.00
33877;BMP180;20166;51.738;7.158;2024-02-23T10:01:37;98623.00;;;8.10
33877;BMP180;20166;51.738;7.158;2024-02-23T10:04:24;98639.00;;;8.10
33877;BMP180;20166;51.738;7.158;2024-02-23T10:07:14;98641.00;;;8.00
33877;BMP180;20166;51.738;7.158;2024-02-23T10:10:01;98643.00;;;8.00
33877;BMP180;20166;51.738;7.158;2024-02-23T10:12:50;98636.00;;;8.10
33877;BMP180;20166;51.738;7.158;2024-02-23T10:15:37;98643.00;;;8.00
33877;BMP180;20166;51.738;7.158;2024-02-23T10:18:39;98637.00;;;8.20
33877;BMP180;20166;51.738;7.158;2024-02-23T10:21:26;98650.00;;;8.20
33877;BMP180;20166;51.738;7.158;2024-02-23T10:24:13;98643.00;;;8.30
33877;BMP180;20166;51.738;7.158;2024-02-23T10:27:02;98639.00;;;8.40
33877;BMP180;20166;51.738;7.158;2024-02-23T10:29:50;98633.00;;;8.40
33877;BMP180;20166;51.738;7.158;2024-02-23T10:32:38;98636.00;;;8.40
33877;BMP180;20166;51.738;7.158;2024-02-23T10:35:25;98633.00;;;8.50
33877;BMP180;20166;51.738;7.158;2024-02-23T10:38:15;98648.00;;;8.50
33877;BMP180;20166;51.738;7.158;2024-02-23T10:41:05;98645.00;;;8.60
33877;BMP180;20166;51.738;7.158;2024-02-23T10:43:52;98643.00;;;8.60
33877;BMP180;20166;51.738;7.158;2024-02-23T10:46:41;98654.00;;;8.70
33877;BMP180;20166;51.738;7.158;2024-02-23T10:49:28;98654.00;;;8.70
33877;BMP180;20166;51.738;7.158;2024-02-23T10:52:15;98646.00;;;8.80
33877;BMP180;20166;51.738;7.158;2024-02-23T10:55:02;98661.00;;;8.80
33877;BMP180;20166;51.738;7.158;2024-02-23T10:57:51;98666.00;;;8.80
33877;BMP180;20166;51.738;7.158;2024-02-23T11:00:39;98668.00;;;8.80
33877;BMP180;20166;51.738;7.158;2024-02-23T11:03:29;98657.00;;;8.70
33877;BMP180;20166;51.738;7.158;2024-02-23T11:06:16;98658.00;;;8.70
33877;BMP180;20166;51.738;7.158;2024-02-23T11:09:07;98658.00;;;8.70
33877;BMP180;20166;51.738;7.158;2024-02-23T11:11:55;98647.00;;;8.70
33877;BMP180;20166;51.738;7.158;2024-02-23T11:14:44;98643.00;;;8.70
33877;BMP180;20166;51.738;7.158;2024-02-23T11:17:31;98648.00;;;8.80
33877;BMP180;20166;51.738;7.158;2024-02-23T11:20:20;98650.00;;;8.70
33877;BMP180;20166;51.738;7.158;2024-02-23T11:23:16;98648.00;;;8.70
33877;BMP180;20166;51.738;7.158;2024-02-23T11:26:05;98641.00;;;8.70
33877;BMP180;20166;51.738;7.158;2024-02-23T11:28:53;98661.00;;;8.80
33877;BMP180;20166;51.738;7.158;2024-02-23T11:31:44;98664.00;;;8.80
33877;BMP180;20166;51.738;7.158;2024-02-23T11:34:31;98654.00;;;8.90
33877;BMP180;20166;51.738;7.158;2024-02-23T11:37:21;98648.00;;;8.90
33877;BMP180;20166;51.738;7.158;2024-02-23T11:40:09;98654.00;;;8.90
33877;BMP180;20166;51.738;7.158;2024-02-23T11:42:58;98656.00;;;8.90
33877;BMP180;20166;51.738;7.158;2024-02-23T11:45:46;98655.00;;;9.10
33877;BMP180;20166;51.738;7.158;2024-02-23T11:48:34;98645.00;;;9.10
33877;BMP180;20166;51.738;7.158;2024-02-23T11:51:21;98648.00;;;9.20
33877;BMP180;20166;51.738;7.158;2024-02-23T11:54:10;98650.00;;;9.30
33877;BMP180;20166;51.738;7.158;2024-02-23T11:56:56;98668.00;;;9.20
33877;BMP180;20166;51.738;7.158;2024-02-23T11:59:43;98652.00;;;9.10
33877;BMP180;20166;51.738;7.158;2024-02-23T12:02:29;98643.00;;;9.10
33877;BMP180;20166;51.738;7.158;2024-02-23T12:05:16;98650.00;;;9.10
33877;BMP180;20166;51.738;7.158;2024-02-23T12:08:03;98650.00;;;9.20
33877;BMP180;20166;51.738;7.158;2024-02-23T12:10:52;98643.00;;;9.30
33877;BMP180;20166;51.738;7.158;2024-02-23T12:13:38;98650.00;;;9.30
33877;BMP180;20166;51.738;7.158;2024-02-23T12:16:25;98648.00;;;9.30
33877;BMP180;20166;51.738;7.158;2024-02-23T12:19:11;98641.00;;;9.20
33877;BMP180;20166;51.738;7.158;2024-02-23T12:22:00;98637.00;;;9.30
33877;BMP180;20166;51.738;7.158;2024-02-23T12:24:46;98650.00;;;9.20
33877;BMP180;20166;51.738;7.158;2024-02-23T12:27:34;98652.00;;;9.20
33877;BMP180;20166;51.738;7.158;2024-02-23T12:30:21;98638.00;;;9.30
33877;BMP180;20166;51.738;7.158;2024-02-23T12:33:07;98659.00;;;9.30
33877;BMP180;20166;51.738;7.158;2024-02-23T12:35:54;98669.00;;;9.30
33877;BMP180;20166;51.738;7.158;2024-02-23T12:38:40;98665.00;;;9.30
33877;BMP180;20166;51.738;7.158;2024-02-23T12:41:27;98662.00;;;9.30
33877;BMP180;20166;51.738;7.158;2024-02-23T12:44:15;98671.00;;;9.40
33877;BMP180;20166;51.738;7.158;2024-02-23T12:47:01;98678.00;;;9.40
33877;BMP180;20166;51.738;7.158;2024-02-23T12:49:48;98669.00;;;9.40
33877;BMP180;20166;51.738;7.158;2024-02-23T12:52:34;98676.00;;;9.50
33877;BMP180;20166;51.738;7.158;2024-02-23T12:55:21;98675.00;;;9.40
33877;BMP180;20166;51.738;7.158;2024-02-23T12:58:07;98675.00;;;9.40
33877;BMP180;20166;51.738;7.158;2024-02-23T13:00:55;98677.00;;;9.30
33877;BMP180;20166;51.738;7.158;2024-02-23T13:03:42;98671.00;;;9.20
33877;BMP180;20166;51.738;7.158;2024-02-23T13:06:29;98682.00;;;9.30
33877;BMP180;20166;51.738;7.158;2024-02-23T13:09:15;98680.00;;;9.30
33877;BMP180;20166;51.738;7.158;2024-02-23T13:12:02;98690.00;;;9.30
33877;BMP180;20166;51.738;7.158;2024-02-23T13:14:50;98694.00;;;9.40
33877;BMP180;20166;51.738;7.158;2024-02-23T13:17:37;98694.00;;;9.40
33877;BMP180;20166;51.738;7.158;2024-02-23T13:20:24;98688.00;;;9.30
33877;BMP180;20166;51.738;7.158;2024-02-23T13:23:11;98694.00;;;9.40
33877;BMP180;20166;51.738;7.158;2024-02-23T13:25:58;98689.00;;;9.30
33877;BMP180;20166;51.738;7.158;2024-02-23T13:28:47;98695.00;;;9.20
33877;BMP180;20166;51.738;7.158;2024-02-23T13:31:34;98692.00;;;9.10
33877;BMP180;20166;51.738;7.158;2024-02-23T13:34:22;98705.00;;;9.00
33877;BMP180;20166;51.738;7.158;2024-02-23T13:37:08;98700.00;;;9.10
33877;BMP180;20166;51.738;7.158;2024-02-23T13:39:55;98705.00;;;9.10
33877;BMP180;20166;51.738;7.158;2024-02-23T13:42:41;98705.00;;;9.00
33877;BMP180;20166;51.738;7.158;2024-02-23T13:45:31;98707.00;;;9.10
33877;BMP180;20166;51.738;7.158;2024-02-23T13:48:18;98711.00;;;9.10
33877;BMP180;20166;51.738;7.158;2024-02-23T13:51:06;98712.00;;;9.10
33877;BMP180;20166;51.738;7.158;2024-02-23T13:53:53;98701.00;;;9.10
33877;BMP180;20166;51.738;7.158;2024-02-23T13:56:39;98699.00;;;9.10
33877;BMP180;20166;51.738;7.158;2024-02-23T13:59:25;98707.00;;;9.10
33877;BMP180;20166;51.738;7.158;2024-02-23T14:02:12;98702.00;;;9.10
33877;BMP180;20166;51.738;7.158;2024-02-23T14:05:01;98702.00;;;9.00
33877;BMP180;20166;51.738;7.158;2024-02-23T14:07:50;98697.00;;;9.00
33877;BMP180;20166;51.738;7.158;2024-02-23T14:10:38;98697.00;;;9.10
33877;BMP180;20166;51.738;7.158;2024-02-23T14:13:25;98708.00;;;9.10
33877;BMP180;20166;51.738;7.158;2024-02-23T14:16:11;98712.00;;;9.10
33877;BMP180;20166;51.738;7.158;2024-02-23T14:18:58;98717.00;;;9.30
33877;BMP180;20166;51.738;7.158;2024-02-23T14:21:44;98713.00;;;9.30
33877;BMP180;20166;51.738;7.158;2024-02-23T14:24:32;98698.00;;;9.20
33877;BMP180;20166;51.738;7.158;2024-02-23T14:27:18;98713.00;;;9.20
33877;BMP180;20166;51.738;7.158;2024-02-23T14:30:06;98717.00;;;9.20
33877;BMP180;20166;51.738;7.158;2024-02-23T14:32:53;98725.00;;;9.20
33877;BMP180;20166;51.738;7.158;2024-02-23T14:35:40;98723.00;;;9.10
33877;BMP180;20166;51.738;7.158;2024-02-23T14:38:26;98722.00;;;9.10
33877;BMP180;20166;51.738;7.158;2024-02-23T14:41:14;98726.00;;;9.00
33877;BMP180;20166;51.738;7.158;2024-02-23T14:44:00;98730.00;;;9.10
33877;BMP180;20166;51.738;7.158;2024-02-23T14:46:46;98731.00;;;9.00
33877;BMP180;20166;51.738;7.158;2024-02-23T14:49:33;98734.00;;;9.10
33877;BMP180;20166;51.738;7.158;2024-02-23T14:52:19;98727.00;;;9.10
33877;BMP180;20166;51.738;7.158;2024-02-23T14:55:06;98735.00;;;9.10
33877;BMP180;20166;51.738;7.158;2024-02-23T14:57:57;98734.00;;;9.10
33877;BMP180;20166;51.738;7.158;2024-02-23T15:00:44;98731.00;;;9.20
33877;BMP180;20166;51.738;7.158;2024-02-23T15:03:30;98725.00;;;9.20
33877;BMP180;20166;51.738;7.158;2024-02-23T15:06:18;98732.00;;;9.30
33877;BMP180;20166;51.738;7.158;2024-02-23T15:09:06;98738.00;;;9.30
33877;BMP180;20166;51.738;7.158;2024-02-23T15:11:53;98741.00;;;9.30
33877;BMP180;20166;51.738;7.158;2024-02-23T15:14:41;98745.00;;;9.30
33877;BMP180;20166;51.738;7.158;2024-02-23T15:17:28;98744.00;;;9.30
33877;BMP180;20166;51.738;7.158;2024-02-23T15:20:14;98735.00;;;9.40
33877;BMP180;20166;51.738;7.158;2024-02-23T15:23:01;98747.00;;;9.40
33877;BMP180;20166;51.738;7.158;2024-02-23T15:25:48;98753.00;;;9.50
33877;BMP180;20166;51.738;7.158;2024-02-23T15:28:44;98734.00;;;9.50
33877;BMP180;20166;51.738;7.158;2024-02-23T15:31:32;98739.00;;;9.50
33877;BMP180;20166;51.738;7.158;2024-02-23T15:34:20;98741.00;;;9.50
33877;BMP180;20166;51.738;7.158;2024-02-23T15:37:07;98736.00;;;9.60
33877;BMP180;20166;51.738;7.158;2024-02-23T15:39:53;98735.00;;;9.60
33877;BMP180;20166;51.738;7.158;2024-02-23T15:42:40;98735.00;;;9.70
33877;BMP180;20166;51.738;7.158;2024-02-23T15:45:27;98727.00;;;9.60
33877;BMP180;20166;51.738;7.158;2024-02-23T15:48:14;98729.00;;;9.60
33877;BMP180;20166;51.738;7.158;2024-02-23T15:51:01;98730.00;;;9.60
33877;BMP180;20166;51.738;7.158;2024-02-23T15:54:07;98739.00;;;9.60
33877;BMP180;20166;51.738;7.158;2024-02-23T15:56:54;98750.00;;;9.60
33877;BMP180;20166;51.738;7.158;2024-02-23T15:59:40;98744.00;;;9.50
33877;BMP180;20166;51.738;7.158;2024-02-23T16:02:27;98743.00;;;9.60
33877;BMP180;20166;51.738;7.158;2024-02-23T16:05:17;98742.00;;;9.50
33877;BMP180;20166;51.738;7.158;2024-02-23T16:08:04;98747.00;;;9.50
33877;BMP180;20166;51.738;7.158;2024-02-23T16:10:51;98755.00;;;9.50
33877;BMP180;20166;51.738;7.158;2024-02-23T16:13:38;98764.00;;;9.40
33877;BMP180;20166;51.738;7.158;2024-02-23T16:16:24;98785.00;;;9.40
33877;BMP180;20166;51.738;7.158;2024-02-23T16:19:11;98797.00;;;9.30